sensor_id;sensor_type;location;lat;lon;timestamp;pressure;altitude;pressure_sealevel;temperature;humidity
41690;BME280;27372;42.658;23.256;2023-03-13T00:01:12;93983.06;;;1.01;54.47
41690;BME280;27372;42.658;23.256;2023-03-13T00:03:38;93988.47;;;1.14;54.60
41690;BME280;27372;42.658;23.256;2023-03-13T00:06:04;93996.09;;;1.07;53.96
41690;BME280;27372;42.658;23.256;2023-03-13T00:08:29;93977.91;;;0.69;55.03
41690;BME280;27372;42.658;23.256;2023-03-13T00:10:55;93989.56;;;0.97;54.61
41690;BME280;27372;42.658;23.256;2023-03-13T00:13:20;93982.34;;;0.84;55.12
41690;BME280;27372;42.658;23.256;2023-03-13T00:15:46;93989.59;;;0.57;56.97
41690;BME280;27372;42.658;23.256;2023-03-13T00:18:11;93992.00;;;0.27;56.18
41690;BME280;27372;42.658;23.256;2023-03-13T00:20:37;93988.41;;;0.36;56.88
41690;BME280;27372;42.658;23.256;2023-03-13T00:23:02;94001.66;;;0.33;58.60
41690;BME280;27372;42.658;23.256;2023-03-13T00:25:28;93991.91;;;0.43;56.72
41690;BME280;27372;42.658;23.256;2023-03-13T00:27:53;93999.75;;;0.27;57.17
41690;BME280;27372;42.658;23.256;2023-03-13T00:30:18;94005.81;;;0.42;56.15
41690;BME280;27372;42.658;23.256;2023-03-13T00:32:45;94002.56;;;0.49;56.04
41690;BME280;27372;42.658;23.256;2023-03-13T00:35:14;93994.19;;;0.46;57.15
41690;BME280;27372;42.658;23.256;2023-03-13T00:37:41;93991.97;;;0.67;55.69
41690;BME280;27372;42.658;23.256;2023-03-13T00:40:07;93994.94;;;0.87;55.59
41690;BME280;27372;42.658;23.256;2023-03-13T00:42:33;94004.81;;;0.83;56.11
41690;BME280;27372;42.658;23.256;2023-03-13T00:44:58;93998.44;;;0.94;54.54
41690;BME280;27372;42.658;23.256;2023-03-13T00:47:24;94007.75;;;1.03;54.40
41690;BME280;27372;42.658;23.256;2023-03-13T00:49:49;93994.63;;;1.13;54.86
41690;BME280;27372;42.658;23.256;2023-03-13T00:52:15;94004.44;;;0.95;53.85
41690;BME280;27372;42.658;23.256;2023-03-13T00:54:40;94002.75;;;0.79;53.52
41690;BME280;27372;42.658;23.256;2023-03-13T00:57:05;93992.41;;;0.79;56.08
41690;BME280;27372;42.658;23.256;2023-03-13T00:59:31;93998.03;;;0.82;56.87
41690;BME280;27372;42.658;23.256;2023-03-13T01:01:56;93993.72;;;0.74;55.95
41690;BME280;27372;42.658;23.256;2023-03-13T01:04:22;93995.00;;;0.79;57.45
41690;BME280;27372;42.658;23.256;2023-03-13T01:06:47;93990.16;;;0.75;55.89
41690;BME280;27372;42.658;23.256;2023-03-13T01:09:14;93992.56;;;0.77;56.88
41690;BME280;27372;42.658;23.256;2023-03-13T01:11:40;93991.97;;;0.98;56.28
41690;BME280;27372;42.658;23.256;2023-03-13T01:14:09;93988.28;;;0.92;55.56
41690;BME280;27372;42.658;23.256;2023-03-13T01:16:36;93981.81;;;0.97;56.02
41690;BME280;27372;42.658;23.256;2023-03-13T01:19:06;93988.91;;;1.18;54.74
41690;BME280;27372;42.658;23.256;2023-03-13T01:21:32;93986.84;;;1.36;53.62
41690;BME280;27372;42.658;23.256;2023-03-13T01:23:57;93977.34;;;1.29;54.92
41690;BME280;27372;42.658;23.256;2023-03-13T01:26:25;94000.88;;;1.42;55.57
41690;BME280;27372;42.658;23.256;2023-03-13T01:28:50;94001.53;;;0.89;55.20
41690;BME280;27372;42.658;23.256;2023-03-13T01:31:24;93996.16;;;0.36;57.63
41690;BME280;27372;42.658;23.256;2023-03-13T01:33:53;93998.84;;;0.83;56.65
41690;BME280;27372;42.658;23.256;2023-03-13T01:36:19;94004.50;;;0.86;56.65
41690;BME280;27372;42.658;23.256;2023-03-13T01:38:49;94017.66;;;1.00;56.59
41690;BME280;27372;42.658;23.256;2023-03-13T01:41:15;94008.91;;;1.01;56.08
41690;BME280;27372;42.658;23.256;2023-03-13T01:43:41;94007.94;;;0.79;55.03
41690;BME280;27372;42.658;23.256;2023-03-13T01:46:20;94013.22;;;0.85;55.95
41690;BME280;27372;42.658;23.256;2023-03-13T01:49:11;94013.31;;;0.92;55.31
41690;BME280;27372;42.658;23.256;2023-03-13T01:51:49;94012.53;;;0.91;54.53
41690;BME280;27372;42.658;23.256;2023-03-13T01:56:58;93996.94;;;0.76;53.50
41690;BME280;27372;42.658;23.256;2023-03-13T01:59:27;94010.88;;;0.67;54.05
41690;BME280;27372;42.658;23.256;2023-03-13T02:01:57;94009.19;;;0.83;54.54
41690;BME280;27372;42.658;23.256;2023-03-13T02:04:26;93998.09;;;0.74;57.43
41690;BME280;27372;42.658;23.256;2023-03-13T02:06:57;93996.09;;;0.84;55.68
41690;BME280;27372;42.658;23.256;2023-03-13T02:09:28;93996.63;;;0.71;55.60
41690;BME280;27372;42.658;23.256;2023-03-13T02:12:02;94005.50;;;0.77;54.85
41690;BME280;27372;42.658;23.256;2023-03-13T02:14:32;94004.81;;;0.83;53.50
41690;BME280;27372;42.658;23.256;2023-03-13T02:16:59;94008.84;;;0.86;54.87
41690;BME280;27372;42.658;23.256;2023-03-13T02:28:13;94040.78;;;0.30;57.57
41690;BME280;27372;42.658;23.256;2023-03-13T02:30:42;94036.34;;;-0.34;58.38
41690;BME280;27372;42.658;23.256;2023-03-13T02:33:07;94040.22;;;-0.13;58.99
41690;BME280;27372;42.658;23.256;2023-03-13T02:35:34;94046.09;;;0.20;57.13
41690;BME280;27372;42.658;23.256;2023-03-13T02:38:02;94056.13;;;0.23;57.16
41690;BME280;27372;42.658;23.256;2023-03-13T02:40:36;94055.88;;;0.50;56.01
41690;BME280;27372;42.658;23.256;2023-03-13T02:43:06;94050.97;;;0.63;56.75
41690;BME280;27372;42.658;23.256;2023-03-13T02:45:33;94062.44;;;0.12;56.77
41690;BME280;27372;42.658;23.256;2023-03-13T02:47:58;94072.09;;;0.10;57.02
41690;BME280;27372;42.658;23.256;2023-03-13T02:50:25;94071.69;;;-0.26;58.62
41690;BME280;27372;42.658;23.256;2023-03-13T02:52:54;94079.91;;;-0.14;57.06
41690;BME280;27372;42.658;23.256;2023-03-13T02:55:31;94071.16;;;0.03;56.79
41690;BME280;27372;42.658;23.256;2023-03-13T02:57:59;94075.53;;;0.03;57.86
41690;BME280;27372;42.658;23.256;2023-03-13T03:00:24;94075.38;;;-0.29;58.61
41690;BME280;27372;42.658;23.256;2023-03-13T03:02:52;94087.00;;;-0.33;59.32
41690;BME280;27372;42.658;23.256;2023-03-13T03:05:18;94070.88;;;-0.35;59.82
41690;BME280;27372;42.658;23.256;2023-03-13T03:07:44;94071.81;;;-0.03;58.78
41690;BME280;27372;42.658;23.256;2023-03-13T03:10:10;94068.19;;;0.31;58.13
41690;BME280;27372;42.658;23.256;2023-03-13T03:12:36;94069.31;;;0.45;57.20
41690;BME280;27372;42.658;23.256;2023-03-13T03:15:02;94076.22;;;0.53;56.89
41690;BME280;27372;42.658;23.256;2023-03-13T03:17:29;94097.53;;;0.55;56.56
41690;BME280;27372;42.658;23.256;2023-03-13T03:19:54;94095.03;;;0.22;59.58
41690;BME280;27372;42.658;23.256;2023-03-13T03:22:20;94100.59;;;0.58;58.79
41690;BME280;27372;42.658;23.256;2023-03-13T03:24:45;94109.09;;;0.75;57.53
41690;BME280;27372;42.658;23.256;2023-03-13T03:27:11;94110.75;;;0.68;56.26
41690;BME280;27372;42.658;23.256;2023-03-13T03:29:36;94121.59;;;0.64;56.38
41690;BME280;27372;42.658;23.256;2023-03-13T03:32:01;94113.53;;;0.50;56.34
41690;BME280;27372;42.658;23.256;2023-03-13T03:34:27;94115.00;;;0.44;56.97
41690;BME280;27372;42.658;23.256;2023-03-13T03:36:52;94110.88;;;0.02;58.48
41690;BME280;27372;42.658;23.256;2023-03-13T03:39:18;94111.50;;;0.12;57.13
41690;BME280;27372;42.658;23.256;2023-03-13T03:41:43;94122.13;;;0.51;56.38
41690;BME280;27372;42.658;23.256;2023-03-13T03:44:09;94136.47;;;0.53;56.25
41690;BME280;27372;42.658;23.256;2023-03-13T03:46:34;94143.09;;;0.56;56.94
41690;BME280;27372;42.658;23.256;2023-03-13T03:48:59;94144.25;;;0.45;57.43
41690;BME280;27372;42.658;23.256;2023-03-13T03:51:26;94147.94;;;0.59;58.98
41690;BME280;27372;42.658;23.256;2023-03-13T03:53:51;94147.97;;;0.42;59.26
41690;BME280;27372;42.658;23.256;2023-03-13T03:56:17;94143.94;;;0.40;59.17
41690;BME280;27372;42.658;23.256;2023-03-13T03:58:42;94142.47;;;0.45;57.33
41690;BME280;27372;42.658;23.256;2023-03-13T04:01:08;94142.31;;;0.55;56.14
41690;BME280;27372;42.658;23.256;2023-03-13T04:03:33;94152.16;;;0.60;56.87
41690;BME280;27372;42.658;23.256;2023-03-13T04:05:59;94146.34;;;0.33;58.16
41690;BME280;27372;42.658;23.256;2023-03-13T04:08:24;94150.75;;;0.08;59.53
41690;BME280;27372;42.658;23.256;2023-03-13T04:10:50;94161.72;;;0.35;59.06
41690;BME280;27372;42.658;23.256;2023-03-13T04:13:16;94164.94;;;0.28;58.35
41690;BME280;27372;42.658;23.256;2023-03-13T04:15:41;94161.38;;;0.38;59.11
41690;BME280;27372;42.658;23.256;2023-03-13T04:18:07;94177.06;;;0.20;57.86
41690;BME280;27372;42.658;23.256;2023-03-13T04:20:33;94173.50;;;0.04;58.46
41690;BME280;27372;42.658;23.256;2023-03-13T04:22:58;94173.16;;;0.32;58.13
41690;BME280;27372;42.658;23.256;2023-03-13T04:25:24;94178.97;;;0.34;58.21
41690;BME280;27372;42.658;23.256;2023-03-13T04:27:50;94189.59;;;0.64;56.86
41690;BME280;27372;42.658;23.256;2023-03-13T04:30:15;94176.19;;;0.69;57.51
41690;BME280;27372;42.658;23.256;2023-03-13T04:32:41;94191.19;;;0.73;56.89
41690;BME280;27372;42.658;23.256;2023-03-13T04:35:07;94191.03;;;0.83;56.46
41690;BME280;27372;42.658;23.256;2023-03-13T04:37:32;94213.84;;;0.80;57.83
41690;BME280;27372;42.658;23.256;2023-03-13T04:39:58;94217.38;;;0.87;58.64
41690;BME280;27372;42.658;23.256;2023-03-13T04:42:23;94224.47;;;0.85;59.63
41690;BME280;27372;42.658;23.256;2023-03-13T04:44:49;94226.78;;;0.46;60.77
41690;BME280;27372;42.658;23.256;2023-03-13T04:47:14;94204.50;;;-0.12;62.29
41690;BME280;27372;42.658;23.256;2023-03-13T04:49:40;94222.28;;;-0.01;63.08
41690;BME280;27372;42.658;23.256;2023-03-13T04:52:05;94228.03;;;-0.32;64.82
41690;BME280;27372;42.658;23.256;2023-03-13T04:54:31;94208.88;;;-0.72;66.09
41690;BME280;27372;42.658;23.256;2023-03-13T04:56:56;94217.66;;;-0.91;67.87
41690;BME280;27372;42.658;23.256;2023-03-13T04:59:23;94222.06;;;-0.84;67.20
41690;BME280;27372;42.658;23.256;2023-03-13T05:01:48;94219.34;;;-0.66;66.27
41690;BME280;27372;42.658;23.256;2023-03-13T05:04:14;94228.63;;;-0.47;66.20
41690;BME280;27372;42.658;23.256;2023-03-13T05:06:40;94227.66;;;-0.45;66.06
41690;BME280;27372;42.658;23.256;2023-03-13T05:09:05;94210.44;;;-0.20;65.31
41690;BME280;27372;42.658;23.256;2023-03-13T05:11:31;94222.94;;;0.18;63.76
41690;BME280;27372;42.658;23.256;2023-03-13T05:13:57;94233.75;;;0.29;62.10
41690;BME280;27372;42.658;23.256;2023-03-13T05:16:22;94228.41;;;0.48;60.22
41690;BME280;27372;42.658;23.256;2023-03-13T05:18:48;94230.34;;;0.70;60.80
41690;BME280;27372;42.658;23.256;2023-03-13T05:21:13;94237.59;;;0.75;61.08
41690;BME280;27372;42.658;23.256;2023-03-13T05:23:39;94235.50;;;0.70;61.23
41690;BME280;27372;42.658;23.256;2023-03-13T05:26:04;94252.09;;;0.92;61.09
41690;BME280;27372;42.658;23.256;2023-03-13T05:28:31;94245.66;;;0.72;59.62
41690;BME280;27372;42.658;23.256;2023-03-13T05:30:56;94249.34;;;0.94;59.07
41690;BME280;27372;42.658;23.256;2023-03-13T05:33:21;94255.00;;;0.89;57.71
41690;BME280;27372;42.658;23.256;2023-03-13T05:35:47;94253.53;;;1.12;58.11
41690;BME280;27372;42.658;23.256;2023-03-13T05:38:14;94258.00;;;1.26;57.04
41690;BME280;27372;42.658;23.256;2023-03-13T05:40:39;94260.84;;;1.48;56.26
41690;BME280;27372;42.658;23.256;2023-03-13T05:43:05;94257.56;;;1.62;55.60
41690;BME280;27372;42.658;23.256;2023-03-13T05:45:31;94264.03;;;1.90;56.17
41690;BME280;27372;42.658;23.256;2023-03-13T05:47:56;94262.34;;;2.05;55.36
41690;BME280;27372;42.658;23.256;2023-03-13T05:50:23;94260.44;;;2.22;53.60
41690;BME280;27372;42.658;23.256;2023-03-13T05:52:49;94255.03;;;2.32;53.92
41690;BME280;27372;42.658;23.256;2023-03-13T05:55:14;94275.47;;;2.50;53.32
41690;BME280;27372;42.658;23.256;2023-03-13T05:57:43;94271.56;;;2.54;54.32
41690;BME280;27372;42.658;23.256;2023-03-13T06:00:10;94265.97;;;2.42;54.69
41690;BME280;27372;42.658;23.256;2023-03-13T06:02:36;94286.00;;;2.72;52.03
41690;BME280;27372;42.658;23.256;2023-03-13T06:05:01;94283.81;;;2.99;50.88
41690;BME280;27372;42.658;23.256;2023-03-13T06:07:27;94289.94;;;3.21;50.94
41690;BME280;27372;42.658;23.256;2023-03-13T06:09:52;94287.31;;;3.21;50.53
41690;BME280;27372;42.658;23.256;2023-03-13T06:12:18;94275.91;;;3.30;49.43
41690;BME280;27372;42.658;23.256;2023-03-13T06:14:44;94270.34;;;3.48;50.02
41690;BME280;27372;42.658;23.256;2023-03-13T06:17:11;94291.53;;;3.67;48.45
41690;BME280;27372;42.658;23.256;2023-03-13T06:19:36;94279.19;;;3.69;48.23
41690;BME280;27372;42.658;23.256;2023-03-13T06:22:02;94280.16;;;3.68;47.66
41690;BME280;27372;42.658;23.256;2023-03-13T06:24:27;94275.28;;;3.43;50.29
41690;BME280;27372;42.658;23.256;2023-03-13T06:26:53;94279.28;;;3.46;48.91
41690;BME280;27372;42.658;23.256;2023-03-13T06:29:18;94290.22;;;3.56;48.91
41690;BME280;27372;42.658;23.256;2023-03-13T06:31:43;94287.44;;;3.57;48.95
41690;BME280;27372;42.658;23.256;2023-03-13T06:34:11;94272.78;;;2.82;50.00
41690;BME280;27372;42.658;23.256;2023-03-13T06:36:36;94271.34;;;2.41;52.04
41690;BME280;27372;42.658;23.256;2023-03-13T06:39:02;94271.94;;;2.20;53.44
41690;BME280;27372;42.658;23.256;2023-03-13T06:41:28;94252.63;;;1.99;53.35
41690;BME280;27372;42.658;23.256;2023-03-13T06:43:53;94263.44;;;1.79;53.99
41690;BME280;27372;42.658;23.256;2023-03-13T06:46:21;94259.28;;;2.48;52.59
41690;BME280;27372;42.658;23.256;2023-03-13T06:48:48;94265.03;;;2.97;52.41
41690;BME280;27372;42.658;23.256;2023-03-13T06:51:15;94272.81;;;3.11;51.58
41690;BME280;27372;42.658;23.256;2023-03-13T06:53:41;94268.72;;;3.17;51.37
41690;BME280;27372;42.658;23.256;2023-03-13T06:56:08;94278.03;;;3.41;51.51
41690;BME280;27372;42.658;23.256;2023-03-13T06:58:34;94262.97;;;3.07;51.91
41690;BME280;27372;42.658;23.256;2023-03-13T07:01:09;94270.06;;;3.28;50.56
41690;BME280;27372;42.658;23.256;2023-03-13T07:03:35;94263.91;;;3.44;50.93
41690;BME280;27372;42.658;23.256;2023-03-13T07:06:02;94274.25;;;3.74;51.59
41690;BME280;27372;42.658;23.256;2023-03-13T07:08:27;94275.78;;;3.68;50.03
41690;BME280;27372;42.658;23.256;2023-03-13T07:10:56;94275.78;;;3.68;50.68
41690;BME280;27372;42.658;23.256;2023-03-13T07:13:22;94270.69;;;3.75;50.46
41690;BME280;27372;42.658;23.256;2023-03-13T07:15:47;94272.78;;;4.01;50.17
41690;BME280;27372;42.658;23.256;2023-03-13T07:18:13;94263.84;;;4.26;49.29
41690;BME280;27372;42.658;23.256;2023-03-13T07:20:40;94271.78;;;4.02;49.30
41690;BME280;27372;42.658;23.256;2023-03-13T07:23:05;94267.22;;;4.26;49.92
41690;BME280;27372;42.658;23.256;2023-03-13T07:25:30;94255.63;;;3.70;50.12
41690;BME280;27372;42.658;23.256;2023-03-13T07:27:56;94261.69;;;3.93;49.66
41690;BME280;27372;42.658;23.256;2023-03-13T07:30:25;94258.25;;;3.92;49.48
41690;BME280;27372;42.658;23.256;2023-03-13T07:32:51;94259.78;;;4.01;48.92
41690;BME280;27372;42.658;23.256;2023-03-13T07:35:16;94253.94;;;4.36;48.04
41690;BME280;27372;42.658;23.256;2023-03-13T07:37:41;94269.28;;;4.53;49.13
41690;BME280;27372;42.658;23.256;2023-03-13T07:40:07;94260.56;;;4.60;48.72
41690;BME280;27372;42.658;23.256;2023-03-13T07:42:33;94265.41;;;4.70;48.32
41690;BME280;27372;42.658;23.256;2023-03-13T07:44:59;94262.06;;;4.98;47.12
41690;BME280;27372;42.658;23.256;2023-03-13T07:47:25;94274.25;;;4.97;46.96
41690;BME280;27372;42.658;23.256;2023-03-13T07:49:50;94277.00;;;4.89;46.35
41690;BME280;27372;42.658;23.256;2023-03-13T07:52:16;94267.28;;;4.76;47.04
41690;BME280;27372;42.658;23.256;2023-03-13T07:54:42;94270.19;;;5.17;46.19
41690;BME280;27372;42.658;23.256;2023-03-13T07:57:07;94258.97;;;5.51;44.46
41690;BME280;27372;42.658;23.256;2023-03-13T07:59:32;94259.53;;;5.47;44.92
41690;BME280;27372;42.658;23.256;2023-03-13T08:01:58;94260.41;;;5.60;44.41
41690;BME280;27372;42.658;23.256;2023-03-13T08:04:23;94250.25;;;5.79;44.18
41690;BME280;27372;42.658;23.256;2023-03-13T08:06:49;94246.31;;;5.97;44.10
41690;BME280;27372;42.658;23.256;2023-03-13T08:09:17;94252.00;;;6.14;43.27
41690;BME280;27372;42.658;23.256;2023-03-13T08:11:42;94241.63;;;6.27;43.17
41690;BME280;27372;42.658;23.256;2023-03-13T08:14:10;94260.75;;;6.61;42.77
41690;BME280;27372;42.658;23.256;2023-03-13T08:16:36;94246.91;;;6.74;43.20
41690;BME280;27372;42.658;23.256;2023-03-13T08:19:03;94240.66;;;6.62;42.66
41690;BME280;27372;42.658;23.256;2023-03-13T08:21:35;94249.69;;;6.86;42.81
41690;BME280;27372;42.658;23.256;2023-03-13T08:24:04;94250.66;;;7.19;41.27
41690;BME280;27372;42.658;23.256;2023-03-13T08:26:32;94256.66;;;7.46;40.94
41690;BME280;27372;42.658;23.256;2023-03-13T08:29:00;94257.66;;;7.38;40.76
41690;BME280;27372;42.658;23.256;2023-03-13T08:31:28;94264.22;;;7.74;39.74
41690;BME280;27372;42.658;23.256;2023-03-13T08:33:54;94254.53;;;7.82;39.35
41690;BME280;27372;42.658;23.256;2023-03-13T08:36:31;94263.47;;;7.60;39.26
41690;BME280;27372;42.658;23.256;2023-03-13T08:38:59;94264.63;;;8.23;39.30
41690;BME280;27372;42.658;23.256;2023-03-13T08:41:27;94267.91;;;9.52;71.70
41690;BME280;27372;42.658;23.256;2023-03-13T08:43:56;94260.81;;;8.90;41.08
41690;BME280;27372;42.658;23.256;2023-03-13T08:46:23;94257.25;;;8.52;39.48
41690;BME280;27372;42.658;23.256;2023-03-13T08:48:53;94252.22;;;8.76;38.77
41690;BME280;27372;42.658;23.256;2023-03-13T08:51:21;94246.03;;;8.96;38.35
41690;BME280;27372;42.658;23.256;2023-03-13T08:53:48;94257.56;;;9.39;37.86
41690;BME280;27372;42.658;23.256;2023-03-13T08:56:16;94257.09;;;9.86;37.07
41690;BME280;27372;42.658;23.256;2023-03-13T08:58:42;94260.72;;;9.66;36.80
41690;BME280;27372;42.658;23.256;2023-03-13T09:01:10;94257.53;;;9.64;36.70
41690;BME280;27372;42.658;23.256;2023-03-13T09:03:37;94248.66;;;10.14;36.05
41690;BME280;27372;42.658;23.256;2023-03-13T09:06:03;94252.84;;;9.85;36.35
41690;BME280;27372;42.658;23.256;2023-03-13T09:08:32;94249.84;;;11.03;47.42
41690;BME280;27372;42.658;23.256;2023-03-13T09:11:11;94254.78;;;11.23;42.94
41690;BME280;27372;42.658;23.256;2023-03-13T09:13:59;94258.88;;;11.07;48.97
41690;BME280;27372;42.658;23.256;2023-03-13T09:16:37;94237.38;;;11.70;54.19
41690;BME280;27372;42.658;23.256;2023-03-13T09:19:18;94234.00;;;12.10;46.91
41690;BME280;27372;42.658;23.256;2023-03-13T09:24:11;94244.78;;;12.25;47.24
41690;BME280;27372;42.658;23.256;2023-03-13T09:29:53;94245.38;;;12.27;35.55
41690;BME280;27372;42.658;23.256;2023-03-13T09:32:18;94246.31;;;11.45;35.89
41690;BME280;27372;42.658;23.256;2023-03-13T09:34:45;94237.31;;;10.32;37.48
41690;BME280;27372;42.658;23.256;2023-03-13T09:37:11;94253.31;;;10.31;36.97
41690;BME280;27372;42.658;23.256;2023-03-13T09:39:36;94251.81;;;9.48;40.03
41690;BME280;27372;42.658;23.256;2023-03-13T09:42:13;94252.63;;;10.35;38.79
41690;BME280;27372;42.658;23.256;2023-03-13T09:44:45;94245.75;;;10.22;38.00
41690;BME280;27372;42.658;23.256;2023-03-13T09:49:48;94233.53;;;10.28;37.41
41690;BME280;27372;42.658;23.256;2023-03-13T09:52:26;94236.34;;;10.99;38.92
41690;BME280;27372;42.658;23.256;2023-03-13T09:55:03;94229.28;;;11.12;36.68
41690;BME280;27372;42.658;23.256;2023-03-13T09:57:35;94233.06;;;11.16;36.08
41690;BME280;27372;42.658;23.256;2023-03-13T10:00:07;94238.97;;;11.59;35.71
41690;BME280;27372;42.658;23.256;2023-03-13T10:02:37;94226.63;;;11.47;36.82
41690;BME280;27372;42.658;23.256;2023-03-13T10:05:23;94221.84;;;11.56;36.30
41690;BME280;27372;42.658;23.256;2023-03-13T10:07:49;94224.56;;;11.73;36.53
41690;BME280;27372;42.658;23.256;2023-03-13T10:10:20;94223.00;;;12.59;35.86
41690;BME280;27372;42.658;23.256;2023-03-13T10:12:51;94222.06;;;12.82;34.66
41690;BME280;27372;42.658;23.256;2023-03-13T10:15:36;94229.47;;;12.22;34.15
41690;BME280;27372;42.658;23.256;2023-03-13T10:18:17;94210.75;;;11.42;33.68
41690;BME280;27372;42.658;23.256;2023-03-13T10:20:46;94197.09;;;10.20;36.50
41690;BME280;27372;42.658;23.256;2023-03-13T10:23:20;94190.88;;;10.99;36.40
41690;BME280;27372;42.658;23.256;2023-03-13T10:25:46;94197.41;;;11.85;34.39
41690;BME280;27372;42.658;23.256;2023-03-13T10:28:14;94195.03;;;12.12;33.66
41690;BME280;27372;42.658;23.256;2023-03-13T10:30:46;94174.78;;;11.19;36.04
41690;BME280;27372;42.658;23.256;2023-03-13T10:33:18;94179.22;;;12.24;35.83
41690;BME280;27372;42.658;23.256;2023-03-13T10:35:44;94182.44;;;12.60;35.18
41690;BME280;27372;42.658;23.256;2023-03-13T10:40:37;94170.88;;;12.15;35.16
41690;BME280;27372;42.658;23.256;2023-03-13T10:43:13;94172.66;;;13.29;34.13
41690;BME280;27372;42.658;23.256;2023-03-13T10:45:41;94164.97;;;13.89;33.33
41690;BME280;27372;42.658;23.256;2023-03-13T10:48:17;94163.50;;;14.25;31.40
41690;BME280;27372;42.658;23.256;2023-03-13T10:50:46;94162.84;;;14.13;32.43
41690;BME280;27372;42.658;23.256;2023-03-13T10:56:15;94161.94;;;14.29;31.79
41690;BME280;27372;42.658;23.256;2023-03-13T10:58:44;94155.28;;;14.49;31.36
41690;BME280;27372;42.658;23.256;2023-03-13T11:01:29;94156.19;;;14.33;32.07
41690;BME280;27372;42.658;23.256;2023-03-13T11:04:20;94131.63;;;14.32;31.57
41690;BME280;27372;42.658;23.256;2023-03-13T11:06:58;94140.59;;;14.64;30.39
41690;BME280;27372;42.658;23.256;2023-03-13T11:09:25;94126.69;;;15.16;30.34
41690;BME280;27372;42.658;23.256;2023-03-13T11:11:53;94125.53;;;14.97;30.37
41690;BME280;27372;42.658;23.256;2023-03-13T11:14:23;94135.63;;;14.67;31.22
41690;BME280;27372;42.658;23.256;2023-03-13T11:22:23;94126.59;;;15.49;29.68
41690;BME280;27372;42.658;23.256;2023-03-13T11:25:17;94130.53;;;16.10;30.11
41690;BME280;27372;42.658;23.256;2023-03-13T11:28:02;94110.97;;;16.26;29.10
41690;BME280;27372;42.658;23.256;2023-03-13T11:36:01;94093.94;;;15.91;28.54
41690;BME280;27372;42.658;23.256;2023-03-13T11:38:41;94098.84;;;15.62;29.55
41690;BME280;27372;42.658;23.256;2023-03-13T11:49:32;94082.59;;;16.37;29.87
41690;BME280;27372;42.658;23.256;2023-03-13T11:54:56;94085.44;;;17.29;27.46
41690;BME280;27372;42.658;23.256;2023-03-13T11:57:27;94069.06;;;16.70;27.08
41690;BME280;27372;42.658;23.256;2023-03-13T12:00:15;94072.00;;;16.27;28.44
41690;BME280;27372;42.658;23.256;2023-03-13T12:05:46;94050.47;;;17.72;26.17
41690;BME280;27372;42.658;23.256;2023-03-13T12:08:40;94050.88;;;17.89;26.60
41690;BME280;27372;42.658;23.256;2023-03-13T12:11:35;94050.56;;;18.06;26.11
41690;BME280;27372;42.658;23.256;2023-03-13T12:14:12;94043.56;;;18.21;25.70
41690;BME280;27372;42.658;23.256;2023-03-13T12:19:18;94042.72;;;17.80;26.33
41690;BME280;27372;42.658;23.256;2023-03-13T12:21:49;94035.50;;;17.86;26.57
41690;BME280;27372;42.658;23.256;2023-03-13T12:29:19;94034.09;;;18.68;25.20
41690;BME280;27372;42.658;23.256;2023-03-13T12:32:13;94029.16;;;18.56;25.09
41690;BME280;27372;42.658;23.256;2023-03-13T12:35:04;94039.59;;;18.47;25.86
41690;BME280;27372;42.658;23.256;2023-03-13T12:37:43;94033.19;;;18.78;25.02
41690;BME280;27372;42.658;23.256;2023-03-13T12:40:18;94020.91;;;17.83;26.94
41690;BME280;27372;42.658;23.256;2023-03-13T12:59:37;94030.53;;;19.75;23.89
41690;BME280;27372;42.658;23.256;2023-03-13T13:02:15;94024.44;;;19.31;23.56
41690;BME280;27372;42.658;23.256;2023-03-13T13:04:45;94032.13;;;20.14;23.27
41690;BME280;27372;42.658;23.256;2023-03-13T13:07:24;94031.31;;;20.33;23.13
41690;BME280;27372;42.658;23.256;2023-03-13T13:12:27;94020.84;;;20.37;22.50
41690;BME280;27372;42.658;23.256;2023-03-13T13:14:57;94026.78;;;19.95;23.35
41690;BME280;27372;42.658;23.256;2023-03-13T13:17:38;94024.16;;;21.22;21.81
41690;BME280;27372;42.658;23.256;2023-03-13T13:25:51;94020.75;;;22.09;20.95
41690;BME280;27372;42.658;23.256;2023-03-13T13:30:48;94019.41;;;20.58;21.43
41690;BME280;27372;42.658;23.256;2023-03-13T13:35:43;94015.34;;;21.50;21.64
41690;BME280;27372;42.658;23.256;2023-03-13T13:41:02;94009.31;;;20.74;22.23
41690;BME280;27372;42.658;23.256;2023-03-13T13:43:34;94004.75;;;21.59;21.28
41690;BME280;27372;42.658;23.256;2023-03-13T13:46:04;94004.59;;;21.13;21.47
41690;BME280;27372;42.658;23.256;2023-03-13T13:48:38;94012.59;;;21.41;21.17
41690;BME280;27372;42.658;23.256;2023-03-13T13:54:10;94011.97;;;21.72;21.30
41690;BME280;27372;42.658;23.256;2023-03-13T13:57:05;94004.69;;;20.94;21.46
41690;BME280;27372;42.658;23.256;2023-03-13T13:59:35;93995.00;;;20.84;21.63
41690;BME280;27372;42.658;23.256;2023-03-13T14:04:36;93985.16;;;20.19;21.84
41690;BME280;27372;42.658;23.256;2023-03-13T14:07:05;93998.06;;;20.58;21.37
41690;BME280;27372;42.658;23.256;2023-03-13T14:09:46;94003.00;;;20.84;21.80
41690;BME280;27372;42.658;23.256;2023-03-13T14:12:31;93991.91;;;20.77;21.86
41690;BME280;27372;42.658;23.256;2023-03-13T14:17:44;93992.25;;;19.90;22.41
41690;BME280;27372;42.658;23.256;2023-03-13T14:20:21;93989.53;;;20.42;22.21
41690;BME280;27372;42.658;23.256;2023-03-13T14:22:48;93992.94;;;19.77;23.28
41690;BME280;27372;42.658;23.256;2023-03-13T14:25:14;93983.81;;;20.82;21.76
41690;BME280;27372;42.658;23.256;2023-03-13T14:27:53;93981.22;;;21.61;21.16
41690;BME280;27372;42.658;23.256;2023-03-13T14:30:28;93988.91;;;21.76;20.59
41690;BME280;27372;42.658;23.256;2023-03-13T14:32:57;93990.22;;;21.87;20.43
41690;BME280;27372;42.658;23.256;2023-03-13T14:35:22;93990.94;;;21.15;21.77
41690;BME280;27372;42.658;23.256;2023-03-13T14:37:50;93988.22;;;21.42;21.29
41690;BME280;27372;42.658;23.256;2023-03-13T14:42:50;93986.66;;;21.55;20.78
41690;BME280;27372;42.658;23.256;2023-03-13T14:47:50;93984.19;;;21.45;21.01
41690;BME280;27372;42.658;23.256;2023-03-13T14:50:18;93978.38;;;20.87;21.08